sensor_id;sensor_type;location;lat;lon;timestamp;temperature;humidity
10089;DHT22;51898;49.864;8.550;2023-08-21T00:01:56;23.50;84.00
10089;DHT22;51898;49.864;8.550;2023-08-21T00:04:57;23.50;84.10
10089;DHT22;51898;49.864;8.550;2023-08-21T00:07:59;23.50;83.90
10089;DHT22;51898;49.864;8.550;2023-08-21T00:11:01;23.50;83.70
10089;DHT22;51898;49.864;8.550;2023-08-21T00:14:03;23.40;83.60
10089;DHT22;51898;49.864;8.550;2023-08-21T00:17:04;23.40;83.70
10089;DHT22;51898;49.864;8.550;2023-08-21T00:20:06;23.40;83.70
10089;DHT22;51898;49.864;8.550;2023-08-21T00:23:10;23.40;83.60
10089;DHT22;51898;49.864;8.550;2023-08-21T00:26:12;23.40;83.40
10089;DHT22;51898;49.864;8.550;2023-08-21T00:29:14;23.30;83.00
10089;DHT22;51898;49.864;8.550;2023-08-21T00:32:16;23.30;82.70
10089;DHT22;51898;49.864;8.550;2023-08-21T00:35:17;23.30;82.40
10089;DHT22;51898;49.864;8.550;2023-08-21T00:38:19;23.30;82.50
10089;DHT22;51898;49.864;8.550;2023-08-21T00:41:21;23.30;82.20
10089;DHT22;51898;49.864;8.550;2023-08-21T00:44:22;23.30;82.20
10089;DHT22;51898;49.864;8.550;2023-08-21T00:47:25;23.30;81.90
10089;DHT22;51898;49.864;8.550;2023-08-21T00:50:26;23.20;81.40
10089;DHT22;51898;49.864;8.550;2023-08-21T00:53:28;23.20;81.40
10089;DHT22;51898;49.864;8.550;2023-08-21T00:56:30;23.20;81.50
10089;DHT22;51898;49.864;8.550;2023-08-21T00:59:35;23.20;81.50
10089;DHT22;51898;49.864;8.550;2023-08-21T01:02:36;23.10;82.00
10089;DHT22;51898;49.864;8.550;2023-08-21T01:05:39;23.10;82.20
10089;DHT22;51898;49.864;8.550;2023-08-21T01:08:55;23.10;82.30
10089;DHT22;51898;49.864;8.550;2023-08-21T01:15:07;22.90;83.00
10089;DHT22;51898;49.864;8.550;2023-08-21T01:18:11;22.90;83.40
10089;DHT22;51898;49.864;8.550;2023-08-21T01:21:13;22.80;83.90
10089;DHT22;51898;49.864;8.550;2023-08-21T01:24:19;22.80;84.20
10089;DHT22;51898;49.864;8.550;2023-08-21T01:27:21;22.80;84.80
10089;DHT22;51898;49.864;8.550;2023-08-21T01:30:23;22.70;85.20
10089;DHT22;51898;49.864;8.550;2023-08-21T01:33:26;22.60;85.40
10089;DHT22;51898;49.864;8.550;2023-08-21T01:36:30;22.60;85.60
10089;DHT22;51898;49.864;8.550;2023-08-21T01:39:32;22.50;85.60
10089;DHT22;51898;49.864;8.550;2023-08-21T01:42:34;22.50;85.70
10089;DHT22;51898;49.864;8.550;2023-08-21T01:45:36;22.50;85.60
10089;DHT22;51898;49.864;8.550;2023-08-21T01:48:38;22.40;85.90
10089;DHT22;51898;49.864;8.550;2023-08-21T01:51:39;22.40;86.10
10089;DHT22;51898;49.864;8.550;2023-08-21T01:54:41;22.40;86.30
10089;DHT22;51898;49.864;8.550;2023-08-21T01:57:43;22.30;86.40
10089;DHT22;51898;49.864;8.550;2023-08-21T02:00:46;22.20;86.60
10089;DHT22;51898;49.864;8.550;2023-08-21T02:03:49;22.10;87.00
10089;DHT22;51898;49.864;8.550;2023-08-21T02:06:50;22.10;87.30
10089;DHT22;51898;49.864;8.550;2023-08-21T02:09:52;22.00;87.60
10089;DHT22;51898;49.864;8.550;2023-08-21T02:12:53;22.00;87.60
10089;DHT22;51898;49.864;8.550;2023-08-21T02:15:55;21.90;87.60
10089;DHT22;51898;49.864;8.550;2023-08-21T02:18:57;21.90;87.60
10089;DHT22;51898;49.864;8.550;2023-08-21T02:21:59;21.90;87.60
10089;DHT22;51898;49.864;8.550;2023-08-21T02:25:01;21.80;87.70
10089;DHT22;51898;49.864;8.550;2023-08-21T02:28:03;21.90;87.60
10089;DHT22;51898;49.864;8.550;2023-08-21T02:31:09;21.90;87.50
10089;DHT22;51898;49.864;8.550;2023-08-21T02:34:11;21.90;87.60
10089;DHT22;51898;49.864;8.550;2023-08-21T02:37:13;21.80;87.70
10089;DHT22;51898;49.864;8.550;2023-08-21T02:40:14;21.80;87.90
10089;DHT22;51898;49.864;8.550;2023-08-21T02:43:16;21.80;87.90
10089;DHT22;51898;49.864;8.550;2023-08-21T02:46:18;21.70;88.40
10089;DHT22;51898;49.864;8.550;2023-08-21T02:49:20;21.60;88.50
10089;DHT22;51898;49.864;8.550;2023-08-21T02:52:21;21.60;88.40
10089;DHT22;51898;49.864;8.550;2023-08-21T02:55:23;21.60;88.50
10089;DHT22;51898;49.864;8.550;2023-08-21T02:58:25;21.60;88.70
10089;DHT22;51898;49.864;8.550;2023-08-21T03:01:26;21.60;88.80
10089;DHT22;51898;49.864;8.550;2023-08-21T03:04:28;21.60;88.90
10089;DHT22;51898;49.864;8.550;2023-08-21T03:07:30;21.60;88.90
10089;DHT22;51898;49.864;8.550;2023-08-21T03:10:32;21.60;88.90
10089;DHT22;51898;49.864;8.550;2023-08-21T03:13:35;21.50;89.00
10089;DHT22;51898;49.864;8.550;2023-08-21T03:16:37;21.50;89.10
10089;DHT22;51898;49.864;8.550;2023-08-21T03:19:38;21.50;89.00
10089;DHT22;51898;49.864;8.550;2023-08-21T03:22:40;21.50;89.30
10089;DHT22;51898;49.864;8.550;2023-08-21T03:25:42;21.40;89.40
10089;DHT22;51898;49.864;8.550;2023-08-21T03:28:44;21.40;89.30
10089;DHT22;51898;49.864;8.550;2023-08-21T03:31:49;21.40;89.20
10089;DHT22;51898;49.864;8.550;2023-08-21T03:34:51;21.50;89.10
10089;DHT22;51898;49.864;8.550;2023-08-21T03:37:53;21.40;89.20
10089;DHT22;51898;49.864;8.550;2023-08-21T03:40:54;21.40;89.40
10089;DHT22;51898;49.864;8.550;2023-08-21T03:43:56;21.30;89.60
10089;DHT22;51898;49.864;8.550;2023-08-21T03:46:58;21.30;89.50
10089;DHT22;51898;49.864;8.550;2023-08-21T03:49:59;21.30;89.70
10089;DHT22;51898;49.864;8.550;2023-08-21T03:53:02;21.30;89.80
10089;DHT22;51898;49.864;8.550;2023-08-21T03:56:03;21.30;89.70
10089;DHT22;51898;49.864;8.550;2023-08-21T03:59:05;21.30;89.90
10089;DHT22;51898;49.864;8.550;2023-08-21T04:02:07;21.20;90.10
10089;DHT22;51898;49.864;8.550;2023-08-21T04:05:09;21.20;90.30
10089;DHT22;51898;49.864;8.550;2023-08-21T04:08:12;21.20;90.30
10089;DHT22;51898;49.864;8.550;2023-08-21T04:11:14;21.20;90.20
10089;DHT22;51898;49.864;8.550;2023-08-21T04:14:16;21.20;90.20
10089;DHT22;51898;49.864;8.550;2023-08-21T04:17:22;21.10;90.20
10089;DHT22;51898;49.864;8.550;2023-08-21T04:20:23;21.10;90.70
10089;DHT22;51898;49.864;8.550;2023-08-21T04:23:26;21.10;90.60
10089;DHT22;51898;49.864;8.550;2023-08-21T04:26:27;21.10;90.50
10089;DHT22;51898;49.864;8.550;2023-08-21T04:29:29;21.10;90.50
10089;DHT22;51898;49.864;8.550;2023-08-21T04:32:31;21.10;90.50
10089;DHT22;51898;49.864;8.550;2023-08-21T04:35:37;21.10;90.50
10089;DHT22;51898;49.864;8.550;2023-08-21T04:38:39;21.10;90.30
10089;DHT22;51898;49.864;8.550;2023-08-21T04:41:42;21.20;90.50
10089;DHT22;51898;49.864;8.550;2023-08-21T04:44:44;21.30;90.60
10089;DHT22;51898;49.864;8.550;2023-08-21T04:47:45;21.40;89.40
10089;DHT22;51898;49.864;8.550;2023-08-21T04:50:47;21.40;89.20
10089;DHT22;51898;49.864;8.550;2023-08-21T04:53:49;21.40;89.00
10089;DHT22;51898;49.864;8.550;2023-08-21T04:56:50;21.50;88.90
10089;DHT22;51898;49.864;8.550;2023-08-21T04:59:52;21.40;88.70
10089;DHT22;51898;49.864;8.550;2023-08-21T05:02:54;21.40;88.80
10089;DHT22;51898;49.864;8.550;2023-08-21T05:05:56;21.40;88.80
10089;DHT22;51898;49.864;8.550;2023-08-21T05:08:58;21.50;88.70
10089;DHT22;51898;49.864;8.550;2023-08-21T05:12:00;21.50;88.50
10089;DHT22;51898;49.864;8.550;2023-08-21T05:15:02;21.60;88.20
10089;DHT22;51898;49.864;8.550;2023-08-21T05:18:03;21.70;87.80
10089;DHT22;51898;49.864;8.550;2023-08-21T05:21:05;21.80;87.40
10089;DHT22;51898;49.864;8.550;2023-08-21T05:24:07;21.90;86.90
10089;DHT22;51898;49.864;8.550;2023-08-21T05:27:09;22.00;86.40
10089;DHT22;51898;49.864;8.550;2023-08-21T05:30:11;22.10;85.50
10089;DHT22;51898;49.864;8.550;2023-08-21T05:33:14;22.20;84.60
10089;DHT22;51898;49.864;8.550;2023-08-21T05:36:16;22.20;84.50
10089;DHT22;51898;49.864;8.550;2023-08-21T05:39:18;22.30;84.60
10089;DHT22;51898;49.864;8.550;2023-08-21T05:42:20;22.30;84.40
10089;DHT22;51898;49.864;8.550;2023-08-21T05:45:22;22.30;84.80
10089;DHT22;51898;49.864;8.550;2023-08-21T05:48:24;22.40;84.80
10089;DHT22;51898;49.864;8.550;2023-08-21T05:51:25;22.50;84.80
10089;DHT22;51898;49.864;8.550;2023-08-21T05:54:27;22.70;84.30
10089;DHT22;51898;49.864;8.550;2023-08-21T05:57:29;22.70;83.40
10089;DHT22;51898;49.864;8.550;2023-08-21T06:00:33;22.90;82.40
10089;DHT22;51898;49.864;8.550;2023-08-21T06:03:35;23.00;82.30
10089;DHT22;51898;49.864;8.550;2023-08-21T06:06:37;23.10;80.50
10089;DHT22;51898;49.864;8.550;2023-08-21T06:09:39;23.20;80.40
10089;DHT22;51898;49.864;8.550;2023-08-21T06:12:43;23.30;79.10
10089;DHT22;51898;49.864;8.550;2023-08-21T06:15:44;23.30;78.90
10089;DHT22;51898;49.864;8.550;2023-08-21T06:18:46;23.50;78.90
10089;DHT22;51898;49.864;8.550;2023-08-21T06:21:48;23.70;78.50
10089;DHT22;51898;49.864;8.550;2023-08-21T06:24:50;23.80;77.40
10089;DHT22;51898;49.864;8.550;2023-08-21T06:27:52;23.90;76.50
10089;DHT22;51898;49.864;8.550;2023-08-21T06:31:00;24.00;75.90
10089;DHT22;51898;49.864;8.550;2023-08-21T06:34:05;24.00;76.40
10089;DHT22;51898;49.864;8.550;2023-08-21T06:37:07;24.20;75.40
10089;DHT22;51898;49.864;8.550;2023-08-21T06:40:09;24.20;74.90
10089;DHT22;51898;49.864;8.550;2023-08-21T06:43:11;24.20;74.60
10089;DHT22;51898;49.864;8.550;2023-08-21T06:46:13;24.20;74.50
10089;DHT22;51898;49.864;8.550;2023-08-21T06:49:15;24.20;75.10
10089;DHT22;51898;49.864;8.550;2023-08-21T06:52:17;24.20;74.90
10089;DHT22;51898;49.864;8.550;2023-08-21T06:55:19;24.30;74.90
10089;DHT22;51898;49.864;8.550;2023-08-21T06:58:21;24.40;74.20
10089;DHT22;51898;49.864;8.550;2023-08-21T07:01:22;24.60;74.20
10089;DHT22;51898;49.864;8.550;2023-08-21T07:04:24;24.80;73.60
10089;DHT22;51898;49.864;8.550;2023-08-21T07:07:26;24.90;72.40
10089;DHT22;51898;49.864;8.550;2023-08-21T07:10:28;25.00;72.80
10089;DHT22;51898;49.864;8.550;2023-08-21T07:13:30;25.20;72.20
10089;DHT22;51898;49.864;8.550;2023-08-21T07:16:32;25.20;71.50
10089;DHT22;51898;49.864;8.550;2023-08-21T07:19:34;25.20;72.00
10089;DHT22;51898;49.864;8.550;2023-08-21T07:22:36;25.30;71.90
10089;DHT22;51898;49.864;8.550;2023-08-21T07:25:38;25.50;71.30
10089;DHT22;51898;49.864;8.550;2023-08-21T07:28:40;25.60;70.20
10089;DHT22;51898;49.864;8.550;2023-08-21T07:31:41;25.70;70.40
10089;DHT22;51898;49.864;8.550;2023-08-21T07:34:43;25.60;70.90
10089;DHT22;51898;49.864;8.550;2023-08-21T07:37:45;25.70;71.00
10089;DHT22;51898;49.864;8.550;2023-08-21T07:40:47;25.90;70.70
10089;DHT22;51898;49.864;8.550;2023-08-21T07:43:49;26.10;69.90
10089;DHT22;51898;49.864;8.550;2023-08-21T07:46:50;26.20;69.80
10089;DHT22;51898;49.864;8.550;2023-08-21T07:49:53;26.20;69.40
10089;DHT22;51898;49.864;8.550;2023-08-21T07:52:55;26.40;69.80
10089;DHT22;51898;49.864;8.550;2023-08-21T07:55:58;26.60;69.30
10089;DHT22;51898;49.864;8.550;2023-08-21T07:59:00;26.70;68.20
10089;DHT22;51898;49.864;8.550;2023-08-21T08:02:02;26.80;68.20
10089;DHT22;51898;49.864;8.550;2023-08-21T08:05:05;26.90;67.90
10089;DHT22;51898;49.864;8.550;2023-08-21T08:08:07;27.00;67.40
10089;DHT22;51898;49.864;8.550;2023-08-21T08:11:08;26.90;68.20
10089;DHT22;51898;49.864;8.550;2023-08-21T08:14:10;27.00;68.10
10089;DHT22;51898;49.864;8.550;2023-08-21T08:17:12;27.10;68.10
10089;DHT22;51898;49.864;8.550;2023-08-21T08:20:13;27.20;67.30
10089;DHT22;51898;49.864;8.550;2023-08-21T08:23:15;27.30;66.80
10089;DHT22;51898;49.864;8.550;2023-08-21T08:26:17;27.50;66.90
10089;DHT22;51898;49.864;8.550;2023-08-21T08:29:18;27.60;66.30
10089;DHT22;51898;49.864;8.550;2023-08-21T08:32:20;27.70;66.00
10089;DHT22;51898;49.864;8.550;2023-08-21T08:35:22;27.70;65.70
10089;DHT22;51898;49.864;8.550;2023-08-21T08:38:24;27.90;65.30
10089;DHT22;51898;49.864;8.550;2023-08-21T08:41:33;28.00;64.90
10089;DHT22;51898;49.864;8.550;2023-08-21T08:44:39;27.90;65.20
10089;DHT22;51898;49.864;8.550;2023-08-21T08:47:42;27.90;65.40
10089;DHT22;51898;49.864;8.550;2023-08-21T08:50:44;28.00;65.10
10089;DHT22;51898;49.864;8.550;2023-08-21T08:53:47;28.00;65.10
10089;DHT22;51898;49.864;8.550;2023-08-21T08:56:49;28.20;64.90
10089;DHT22;51898;49.864;8.550;2023-08-21T08:59:50;28.40;64.20
10089;DHT22;51898;49.864;8.550;2023-08-21T09:02:52;28.60;64.10
10089;DHT22;51898;49.864;8.550;2023-08-21T09:05:55;28.60;63.00
10089;DHT22;51898;49.864;8.550;2023-08-21T09:09:01;28.70;63.00
10089;DHT22;51898;49.864;8.550;2023-08-21T09:12:13;28.70;63.30
10089;DHT22;51898;49.864;8.550;2023-08-21T09:15:16;28.90;63.00
10089;DHT22;51898;49.864;8.550;2023-08-21T09:18:17;29.00;62.70
10089;DHT22;51898;49.864;8.550;2023-08-21T09:21:20;29.00;61.70
10089;DHT22;51898;49.864;8.550;2023-08-21T09:24:22;28.70;62.40
10089;DHT22;51898;49.864;8.550;2023-08-21T09:27:25;28.70;62.80
10089;DHT22;51898;49.864;8.550;2023-08-21T09:30:26;28.80;63.00
10089;DHT22;51898;49.864;8.550;2023-08-21T09:33:28;28.90;63.40
10089;DHT22;51898;49.864;8.550;2023-08-21T09:36:30;29.00;61.90
10089;DHT22;51898;49.864;8.550;2023-08-21T09:39:33;29.00;61.30
10089;DHT22;51898;49.864;8.550;2023-08-21T09:42:35;29.10;60.30
10089;DHT22;51898;49.864;8.550;2023-08-21T09:45:37;29.30;60.40
10089;DHT22;51898;49.864;8.550;2023-08-21T09:48:41;29.30;59.90
10089;DHT22;51898;49.864;8.550;2023-08-21T09:51:43;29.50;61.80
10089;DHT22;51898;49.864;8.550;2023-08-21T09:54:46;29.50;63.10
10089;DHT22;51898;49.864;8.550;2023-08-21T09:57:48;29.40;62.10
10089;DHT22;51898;49.864;8.550;2023-08-21T10:00:59;29.50;62.10
10089;DHT22;51898;49.864;8.550;2023-08-21T10:04:03;29.70;62.30
10089;DHT22;51898;49.864;8.550;2023-08-21T10:07:07;29.90;60.10
10089;DHT22;51898;49.864;8.550;2023-08-21T10:10:11;29.90;61.10
10089;DHT22;51898;49.864;8.550;2023-08-21T10:13:13;30.10;61.40
10089;DHT22;51898;49.864;8.550;2023-08-21T10:16:16;30.10;60.20
10089;DHT22;51898;49.864;8.550;2023-08-21T10:19:18;30.10;60.80
10089;DHT22;51898;49.864;8.550;2023-08-21T10:22:41;30.20;60.50
10089;DHT22;51898;49.864;8.550;2023-08-21T10:25:43;30.20;60.90
10089;DHT22;51898;49.864;8.550;2023-08-21T10:28:53;30.30;60.30
10089;DHT22;51898;49.864;8.550;2023-08-21T10:32:00;30.40;58.90
10089;DHT22;51898;49.864;8.550;2023-08-21T10:35:02;30.30;58.50
10089;DHT22;51898;49.864;8.550;2023-08-21T10:41:26;30.40;58.60
10089;DHT22;51898;49.864;8.550;2023-08-21T10:47:47;30.60;58.60
10089;DHT22;51898;49.864;8.550;2023-08-21T10:50:51;30.70;56.90
10089;DHT22;51898;49.864;8.550;2023-08-21T10:53:53;30.80;56.50
10089;DHT22;51898;49.864;8.550;2023-08-21T10:56:55;31.00;55.00
10089;DHT22;51898;49.864;8.550;2023-08-21T10:59:57;31.10;52.80
10089;DHT22;51898;49.864;8.550;2023-08-21T11:02:59;31.20;50.30
10089;DHT22;51898;49.864;8.550;2023-08-21T11:06:05;31.30;49.70
10089;DHT22;51898;49.864;8.550;2023-08-21T11:09:14;31.40;49.90
10089;DHT22;51898;49.864;8.550;2023-08-21T11:12:20;31.40;48.00
10089;DHT22;51898;49.864;8.550;2023-08-21T11:15:22;31.30;46.30
10089;DHT22;51898;49.864;8.550;2023-08-21T11:18:33;31.50;46.00
10089;DHT22;51898;49.864;8.550;2023-08-21T11:21:35;31.70;43.50
10089;DHT22;51898;49.864;8.550;2023-08-21T11:27:39;31.90;45.90
10089;DHT22;51898;49.864;8.550;2023-08-21T11:30:43;31.80;46.10
10089;DHT22;51898;49.864;8.550;2023-08-21T11:33:51;31.90;46.40
10089;DHT22;51898;49.864;8.550;2023-08-21T11:36:53;32.10;45.90
10089;DHT22;51898;49.864;8.550;2023-08-21T11:39:57;32.20;44.90
10089;DHT22;51898;49.864;8.550;2023-08-21T11:43:02;32.20;42.40
10089;DHT22;51898;49.864;8.550;2023-08-21T11:46:06;32.20;42.90
10089;DHT22;51898;49.864;8.550;2023-08-21T11:49:08;32.20;43.60
10089;DHT22;51898;49.864;8.550;2023-08-21T11:52:11;32.20;44.30
10089;DHT22;51898;49.864;8.550;2023-08-21T11:55:13;32.20;44.70
10089;DHT22;51898;49.864;8.550;2023-08-21T11:58:18;32.30;42.80
10089;DHT22;51898;49.864;8.550;2023-08-21T12:01:20;32.50;41.80
10089;DHT22;51898;49.864;8.550;2023-08-21T12:04:23;32.60;41.30
10089;DHT22;51898;49.864;8.550;2023-08-21T12:07:25;32.60;40.90
10089;DHT22;51898;49.864;8.550;2023-08-21T12:10:29;32.70;40.30
10089;DHT22;51898;49.864;8.550;2023-08-21T12:13:31;32.70;39.90
10089;DHT22;51898;49.864;8.550;2023-08-21T12:16:37;32.70;39.40
10089;DHT22;51898;49.864;8.550;2023-08-21T12:19:39;32.80;37.60
10089;DHT22;51898;49.864;8.550;2023-08-21T12:22:41;32.90;37.40
10089;DHT22;51898;49.864;8.550;2023-08-21T12:25:45;33.00;38.30
10089;DHT22;51898;49.864;8.550;2023-08-21T12:28:48;33.10;40.50
10089;DHT22;51898;49.864;8.550;2023-08-21T12:31:50;33.20;41.30
10089;DHT22;51898;49.864;8.550;2023-08-21T12:34:52;33.10;41.40
10089;DHT22;51898;49.864;8.550;2023-08-21T12:37:57;33.20;41.70
10089;DHT22;51898;49.864;8.550;2023-08-21T12:41:01;33.30;42.80
10089;DHT22;51898;49.864;8.550;2023-08-21T12:44:03;33.40;41.60
10089;DHT22;51898;49.864;8.550;2023-08-21T12:47:05;33.50;41.80
10089;DHT22;51898;49.864;8.550;2023-08-21T12:50:07;33.30;41.80
10089;DHT22;51898;49.864;8.550;2023-08-21T12:53:09;33.40;41.60
10089;DHT22;51898;49.864;8.550;2023-08-21T12:56:11;33.50;41.60
10089;DHT22;51898;49.864;8.550;2023-08-21T12:59:15;33.40;40.90
10089;DHT22;51898;49.864;8.550;2023-08-21T13:02:20;33.60;39.80
10089;DHT22;51898;49.864;8.550;2023-08-21T13:05:24;33.70;40.70
10089;DHT22;51898;49.864;8.550;2023-08-21T13:08:26;33.90;39.80
10089;DHT22;51898;49.864;8.550;2023-08-21T13:11:28;33.90;39.10
10089;DHT22;51898;49.864;8.550;2023-08-21T13:14:31;33.80;39.40
10089;DHT22;51898;49.864;8.550;2023-08-21T13:17:34;33.70;39.40
10089;DHT22;51898;49.864;8.550;2023-08-21T13:20:36;33.60;40.50
10089;DHT22;51898;49.864;8.550;2023-08-21T13:23:38;33.80;40.00
10089;DHT22;51898;49.864;8.550;2023-08-21T13:26:39;33.80;39.50
10089;DHT22;51898;49.864;8.550;2023-08-21T13:29:41;33.90;41.30
10089;DHT22;51898;49.864;8.550;2023-08-21T13:32:43;34.00;39.90
10089;DHT22;51898;49.864;8.550;2023-08-21T13:35:45;33.90;39.20
10089;DHT22;51898;49.864;8.550;2023-08-21T13:38:47;34.00;39.10
10089;DHT22;51898;49.864;8.550;2023-08-21T13:41:49;34.10;38.70
10089;DHT22;51898;49.864;8.550;2023-08-21T13:44:51;34.10;38.80
10089;DHT22;51898;49.864;8.550;2023-08-21T13:47:53;34.30;38.50
10089;DHT22;51898;49.864;8.550;2023-08-21T13:50:55;34.40;38.80
10089;DHT22;51898;49.864;8.550;2023-08-21T13:53:57;34.40;38.20
10089;DHT22;51898;49.864;8.550;2023-08-21T13:56:59;34.50;37.90
10089;DHT22;51898;49.864;8.550;2023-08-21T14:00:03;34.60;38.80
10089;DHT22;51898;49.864;8.550;2023-08-21T14:03:09;34.70;38.60
10089;DHT22;51898;49.864;8.550;2023-08-21T14:06:10;34.90;38.30
10089;DHT22;51898;49.864;8.550;2023-08-21T14:09:13;35.00;38.10
10089;DHT22;51898;49.864;8.550;2023-08-21T14:12:14;35.00;38.00
10089;DHT22;51898;49.864;8.550;2023-08-21T14:15:16;34.90;37.40
10089;DHT22;51898;49.864;8.550;2023-08-21T14:18:19;34.80;38.90
10089;DHT22;51898;49.864;8.550;2023-08-21T14:21:21;34.80;37.60
10089;DHT22;51898;49.864;8.550;2023-08-21T14:24:23;34.80;38.90
10089;DHT22;51898;49.864;8.550;2023-08-21T14:27:25;34.70;38.80
10089;DHT22;51898;49.864;8.550;2023-08-21T14:30:26;34.80;37.10
10089;DHT22;51898;49.864;8.550;2023-08-21T14:33:28;35.00;37.90
10089;DHT22;51898;49.864;8.550;2023-08-21T14:36:30;35.10;37.60
10089;DHT22;51898;49.864;8.550;2023-08-21T14:39:32;35.00;38.00
10089;DHT22;51898;49.864;8.550;2023-08-21T14:42:34;34.90;36.90
10089;DHT22;51898;49.864;8.550;2023-08-21T14:45:36;34.60;37.40
10089;DHT22;51898;49.864;8.550;2023-08-21T14:48:37;34.70;38.70
10089;DHT22;51898;49.864;8.550;2023-08-21T14:51:39;34.80;39.10
10089;DHT22;51898;49.864;8.550;2023-08-21T14:54:41;34.80;39.80
10089;DHT22;51898;49.864;8.550;2023-08-21T14:57:43;34.90;39.60
10089;DHT22;51898;49.864;8.550;2023-08-21T15:00:44;35.00;39.30
10089;DHT22;51898;49.864;8.550;2023-08-21T15:03:46;35.00;39.30
10089;DHT22;51898;49.864;8.550;2023-08-21T15:06:48;34.90;39.30
10089;DHT22;51898;49.864;8.550;2023-08-21T15:09:49;34.80;39.00
10089;DHT22;51898;49.864;8.550;2023-08-21T15:12:52;34.80;39.80
10089;DHT22;51898;49.864;8.550;2023-08-21T15:15:54;34.90;39.90
10089;DHT22;51898;49.864;8.550;2023-08-21T15:18:55;35.00;39.90
10089;DHT22;51898;49.864;8.550;2023-08-21T15:21:57;35.10;40.00
10089;DHT22;51898;49.864;8.550;2023-08-21T15:24:59;35.00;39.50
10089;DHT22;51898;49.864;8.550;2023-08-21T15:28:01;34.70;38.90
10089;DHT22;51898;49.864;8.550;2023-08-21T15:31:03;34.60;39.90
10089;DHT22;51898;49.864;8.550;2023-08-21T15:34:04;34.50;39.60
10089;DHT22;51898;49.864;8.550;2023-08-21T15:37:06;34.20;40.10
10089;DHT22;51898;49.864;8.550;2023-08-21T15:40:08;34.00;40.30
10089;DHT22;51898;49.864;8.550;2023-08-21T15:43:10;34.00;40.20
10089;DHT22;51898;49.864;8.550;2023-08-21T15:46:12;34.10;40.50
10089;DHT22;51898;49.864;8.550;2023-08-21T15:49:14;34.20;40.80
10089;DHT22;51898;49.864;8.550;2023-08-21T15:52:16;34.20;40.70
10089;DHT22;51898;49.864;8.550;2023-08-21T15:55:17;34.50;41.20
10089;DHT22;51898;49.864;8.550;2023-08-21T15:58:19;34.70;41.80
10089;DHT22;51898;49.864;8.550;2023-08-21T16:01:21;35.10;40.60
10089;DHT22;51898;49.864;8.550;2023-08-21T16:04:22;35.30;39.00
10089;DHT22;51898;49.864;8.550;2023-08-21T16:07:24;35.60;39.00
10089;DHT22;51898;49.864;8.550;2023-08-21T16:10:26;35.60;38.20
10089;DHT22;51898;49.864;8.550;2023-08-21T16:13:31;35.90;39.70
10089;DHT22;51898;49.864;8.550;2023-08-21T16:16:33;36.10;39.50
10089;DHT22;51898;49.864;8.550;2023-08-21T16:19:34;36.20;38.70
10089;DHT22;51898;49.864;8.550;2023-08-21T16:22:38;36.30;37.90
10089;DHT22;51898;49.864;8.550;2023-08-21T16:25:40;36.30;38.20
10089;DHT22;51898;49.864;8.550;2023-08-21T16:28:41;36.50;38.20
10089;DHT22;51898;49.864;8.550;2023-08-21T16:31:43;36.70;37.50
10089;DHT22;51898;49.864;8.550;2023-08-21T16:34:45;36.90;37.20
10089;DHT22;51898;49.864;8.550;2023-08-21T16:37:47;37.00;37.80
10089;DHT22;51898;49.864;8.550;2023-08-21T16:40:49;37.20;37.80
10089;DHT22;51898;49.864;8.550;2023-08-21T16:43:51;37.40;37.60
10089;DHT22;51898;49.864;8.550;2023-08-21T16:46:52;37.60;36.90
10089;DHT22;51898;49.864;8.550;2023-08-21T16:49:54;37.80;36.30
10089;DHT22;51898;49.864;8.550;2023-08-21T16:52:56;38.20;36.10
10089;DHT22;51898;49.864;8.550;2023-08-21T16:56:07;38.50;36.00
10089;DHT22;51898;49.864;8.550;2023-08-21T16:59:11;38.60;35.10
10089;DHT22;51898;49.864;8.550;2023-08-21T17:02:13;38.80;34.80
10089;DHT22;51898;49.864;8.550;2023-08-21T17:05:15;38.80;35.40
10089;DHT22;51898;49.864;8.550;2023-08-21T17:08:18;39.00;35.30
10089;DHT22;51898;49.864;8.550;2023-08-21T17:11:20;38.90;34.80
10089;DHT22;51898;49.864;8.550;2023-08-21T17:14:21;38.90;34.10
10089;DHT22;51898;49.864;8.550;2023-08-21T17:17:23;38.90;34.20
10089;DHT22;51898;49.864;8.550;2023-08-21T17:20:25;38.40;34.60
10089;DHT22;51898;49.864;8.550;2023-08-21T17:23:27;38.00;35.40
10089;DHT22;51898;49.864;8.550;2023-08-21T17:26:28;37.40;36.20
10089;DHT22;51898;49.864;8.550;2023-08-21T17:29:30;37.10;37.20
10089;DHT22;51898;49.864;8.550;2023-08-21T17:32:32;36.40;38.20
10089;DHT22;51898;49.864;8.550;2023-08-21T17:35:34;35.50;39.80
10089;DHT22;51898;49.864;8.550;2023-08-21T17:38:36;34.90;41.80
10089;DHT22;51898;49.864;8.550;2023-08-21T17:41:38;34.30;43.70
10089;DHT22;51898;49.864;8.550;2023-08-21T17:44:40;33.70;44.50
10089;DHT22;51898;49.864;8.550;2023-08-21T17:47:42;33.30;45.30
10089;DHT22;51898;49.864;8.550;2023-08-21T17:50:43;32.90;45.80
10089;DHT22;51898;49.864;8.550;2023-08-21T17:53:45;32.70;46.70
10089;DHT22;51898;49.864;8.550;2023-08-21T17:56:47;32.40;47.20
10089;DHT22;51898;49.864;8.550;2023-08-21T17:59:49;32.20;47.00
10089;DHT22;51898;49.864;8.550;2023-08-21T18:02:50;32.00;47.50
10089;DHT22;51898;49.864;8.550;2023-08-21T18:05:52;31.90;50.30
10089;DHT22;51898;49.864;8.550;2023-08-21T18:08:54;31.70;52.30
10089;DHT22;51898;49.864;8.550;2023-08-21T18:11:56;31.50;53.70
10089;DHT22;51898;49.864;8.550;2023-08-21T18:14:58;31.30;54.50
10089;DHT22;51898;49.864;8.550;2023-08-21T18:18:00;31.10;55.70
10089;DHT22;51898;49.864;8.550;2023-08-21T18:21:02;31.00;55.80
10089;DHT22;51898;49.864;8.550;2023-08-21T18:24:04;30.90;56.00
10089;DHT22;51898;49.864;8.550;2023-08-21T18:27:06;30.70;57.10
10089;DHT22;51898;49.864;8.550;2023-08-21T18:30:18;30.60;57.80
10089;DHT22;51898;49.864;8.550;2023-08-21T18:33:20;30.40;59.70
10089;DHT22;51898;49.864;8.550;2023-08-21T18:36:22;30.30;60.50
10089;DHT22;51898;49.864;8.550;2023-08-21T18:39:27;30.10;60.70
10089;DHT22;51898;49.864;8.550;2023-08-21T18:42:29;29.90;61.40
10089;DHT22;51898;49.864;8.550;2023-08-21T18:45:31;29.80;62.10
10089;DHT22;51898;49.864;8.550;2023-08-21T18:48:33;29.60;62.70
10089;DHT22;51898;49.864;8.550;2023-08-21T18:51:35;29.10;64.60
10089;DHT22;51898;49.864;8.550;2023-08-21T18:54:37;28.60;65.00
10089;DHT22;51898;49.864;8.550;2023-08-21T18:57:38;28.40;63.60
10089;DHT22;51898;49.864;8.550;2023-08-21T19:00:41;28.20;63.60
10089;DHT22;51898;49.864;8.550;2023-08-21T19:03:43;28.10;62.10
10089;DHT22;51898;49.864;8.550;2023-08-21T19:06:46;28.00;62.40
10089;DHT22;51898;49.864;8.550;2023-08-21T19:10:08;28.00;62.20
10089;DHT22;51898;49.864;8.550;2023-08-21T19:13:10;28.00;62.80
10089;DHT22;51898;49.864;8.550;2023-08-21T19:16:12;27.90;63.00
10089;DHT22;51898;49.864;8.550;2023-08-21T19:19:14;27.80;63.10
10089;DHT22;51898;49.864;8.550;2023-08-21T19:22:16;27.70;63.30
10089;DHT22;51898;49.864;8.550;2023-08-21T19:25:18;27.70;63.40